地図

経路データ

SID SEASON NUMBER BASIN SUBBASIN NAME ISO_TIME NATURE LAT LON WMO_WIND WMO_PRES WMO_AGENCY TRACK_TYPE DIST2LAND LANDFALL IFLAG USA_AGENCY USA_ATCF_ID USA_LAT USA_LON USA_RECORD USA_STATUS USA_WIND USA_PRES USA_SSHS USA_R34_NE USA_R34_SE USA_R34_SW USA_R34_NW USA_R50_NE USA_R50_SE USA_R50_SW USA_R50_NW USA_R64_NE USA_R64_SE USA_R64_SW USA_R64_NW USA_POCI USA_ROCI USA_RMW USA_EYE TOKYO_LAT TOKYO_LON TOKYO_GRADE TOKYO_WIND TOKYO_PRES TOKYO_R50_DIR TOKYO_R50_LONG TOKYO_R50_SHORT TOKYO_R30_DIR TOKYO_R30_LONG TOKYO_R30_SHORT TOKYO_LAND CMA_LAT CMA_LON CMA_CAT CMA_WIND CMA_PRES HKO_LAT HKO_LON HKO_CAT HKO_WIND HKO_PRES NEWDELHI_LAT NEWDELHI_LON NEWDELHI_GRADE NEWDELHI_WIND NEWDELHI_PRES NEWDELHI_CI NEWDELHI_DP NEWDELHI_POCI REUNION_LAT REUNION_LON REUNION_TYPE REUNION_WIND REUNION_PRES REUNION_TNUM REUNION_CI REUNION_RMW REUNION_R34_NE REUNION_R34_SE REUNION_R34_SW REUNION_R34_NW REUNION_R50_NE REUNION_R50_SE REUNION_R50_SW REUNION_R50_NW REUNION_R64_NE REUNION_R64_SE REUNION_R64_SW REUNION_R64_NW BOM_LAT BOM_LON BOM_TYPE BOM_WIND BOM_PRES BOM_TNUM BOM_CI BOM_RMW BOM_R34_NE BOM_R34_SE BOM_R34_SW BOM_R34_NW BOM_R50_NE BOM_R50_SE BOM_R50_SW BOM_R50_NW BOM_R64_NE BOM_R64_SE BOM_R64_SW BOM_R64_NW BOM_ROCI BOM_POCI BOM_EYE BOM_POS_METHOD BOM_PRES_METHOD NADI_LAT NADI_LON NADI_CAT NADI_WIND NADI_PRES WELLINGTON_LAT WELLINGTON_LON WELLINGTON_WIND WELLINGTON_PRES DS824_LAT DS824_LON DS824_STAGE DS824_WIND DS824_PRES TD9636_LAT TD9636_LON TD9636_STAGE TD9636_WIND TD9636_PRES TD9635_LAT TD9635_LON TD9635_WIND TD9635_PRES TD9635_ROCI NEUMANN_LAT NEUMANN_LON NEUMANN_CLASS NEUMANN_WIND NEUMANN_PRES MLC_LAT MLC_LON MLC_CLASS MLC_WIND MLC_PRES USA_GUST BOM_GUST BOM_GUST_PER REUNION_GUST REUNION_GUST_PER USA_SEAHGT USA_SEARAD_NE USA_SEARAD_SE USA_SEARAD_SW USA_SEARAD_NW STORM_SPEED STORM_DIR
1945185N14113 1945 31 WP MM NANCY 1945-07-03 12:00:00 TS 14.2000 113.100 main 411 411 O________OOO__ jtwc_wp WP051945 14.2000 113.100 20 -1 14.2000 113.100 TC 20 14.2000 113.100 1 20 14.2000 113.100 20 1005 120 4 44
1945185N14113 1945 31 WP MM NANCY 1945-07-03 15:00:00 TS 14.3511 113.247 main 424 424 P________PPP__ WP051945 14.3525 113.247 20 -1 14.3525 113.247 TC 20 14.3469 113.247 1 20 14.3525 113.247 20 1005 120 4 44
1945185N14113 1945 31 WP MM NANCY 1945-07-03 18:00:00 TS 14.4988 113.399 main 447 447 O________OPO__ jtwc_wp WP051945 14.5000 113.400 20 -1 14.5000 113.400 TC 20 14.4950 113.395 1 20 14.5000 113.400 20 1005 120 4 46
1945185N14113 1945 31 WP MM NANCY 1945-07-03 21:00:00 TS 14.6433 113.555 main 470 470 P________PPP__ WP051945 14.6425 113.558 20 -1 14.6425 113.558 TC 20 14.6456 113.546 1 20 14.6425 113.558 20 1005 120 4 44
1945185N14113 1945 31 WP MM NANCY 1945-07-04 00:00:00 TS 14.8000 113.700 main 484 484 O________OOO__ jtwc_wp WP051945 14.8000 113.700 20 -1 14.8000 113.700 TC 20 14.8000 113.700 1 20 14.8000 113.700 20 1005 120 4 36
1945185N14113 1945 31 WP MM NANCY 1945-07-04 03:00:00 TS 14.9899 113.809 main 500 500 P________PPP__ WP051945 15.0000 113.793 20 -1 15.0000 113.793 TC 20 14.9597 113.858 1 20 15.0000 113.793 20 1004 120 4 30
1945185N14113 1945 31 WP MM NANCY 1945-07-04 06:00:00 TS 15.1819 113.929 main 516 516 O________OPO__ jtwc_wp WP051945 15.2000 113.900 20 -1 15.2000 113.900 TC 20 15.1275 114.015 1 20 15.2000 113.900 20 1004 120 5 41
1945185N14113 1945 31 WP MM NANCY 1945-07-04 09:00:00 TS 15.3336 114.122 main 539 539 P________PPP__ WP051945 15.3426 114.107 20 -1 15.3426 114.107 TC 20 15.3066 114.164 1 20 15.3426 114.107 20 1004 120 5 48
1945185N14113 1945 31 WP MM NANCY 1945-07-04 12:00:00 TS 15.5000 114.300 main 547 539 O________OOO__ jtwc_wp WP051945 15.5000 114.300 20 -1 15.5000 114.300 TC 20 15.5000 114.300 1 20 15.5000 114.300 20 1004 120 5 31
1945185N14113 1945 31 WP MM NANCY 1945-07-04 15:00:00 TS 15.7345 114.370 main 540 519 P________PPP__ WP051945 15.7425 114.358 20 -1 15.7425 114.358 TC 20 15.7105 114.406 1 20 15.7425 114.358 20 1004 120 5 13
1945185N14113 1945 31 WP MM NANCY 1945-07-04 18:00:00 TS 15.9837 114.425 main 519 514 O________OPO__ jtwc_wp WP051945 16.0000 114.400 20 -1 16.0000 114.400 TC 20 15.9349 114.500 1 20 16.0000 114.400 20 1004 120 5 21
1945185N14113 1945 31 WP MM NANCY 1945-07-04 21:00:00 TS 16.1973 114.550 main 514 514 P________PPP__ WP051945 16.2075 114.535 20 -1 16.2075 114.535 TC 20 16.1668 114.594 1 20 16.2075 114.535 20 1003 150 5 33
1945185N14113 1945 31 WP MM NANCY 1945-07-05 00:00:00 TS 16.4000 114.700 main 519 514 O________OOO__ jtwc_wp WP051945 16.4000 114.700 20 -1 16.4000 114.700 TC 20 16.4000 114.700 1 20 16.4000 114.700 20 1003 180 5 36
1945185N14113 1945 31 WP MM NANCY 1945-07-05 03:00:00 TS 16.5976 114.850 main 516 507 P________PPP__ WP051945 16.5925 114.850 25 -1 16.5925 114.850 TC 25 16.6129 114.852 1 22 16.5925 114.850 25 1003 150 5 36
1945185N14113 1945 31 WP MM NANCY 1945-07-05 06:00:00 TS 16.8069 115.004 main 509 492 O________OPO__ jtwc_wp WP051945 16.8000 115.000 30 -1 16.8000 115.000 TC 30 16.8276 115.015 1 25 16.8000 115.000 30 1003 120 5 34
1945185N14113 1945 31 WP MM NANCY 1945-07-05 09:00:00 TS 17.0396 115.166 main 492 487 P________PPP__ WP051945 17.0350 115.165 30 -1 17.0350 115.165 TC 30 17.0535 115.171 1 27 17.0350 115.165 30 1003 120 6 30
1945185N14113 1945 31 WP MM NANCY 1945-07-05 12:00:00 TS 17.3000 115.300 main 490 487 O________OOO__ jtwc_wp WP051945 17.3000 115.300 30 -1 17.3000 115.300 TC 30 17.3000 115.300 1 30 17.3000 115.300 30 1003 120 6 20
1945185N14113 1945 31 WP MM NANCY 1945-07-05 15:00:00 TS 17.5900 115.372 main 490 490 P________PPP__ WP051945 17.5925 115.365 30 -1 17.5925 115.365 TC 30 17.5824 115.391 1 31 17.5925 115.365 30 1002 120 6 10
1945185N14113 1945 31 WP MM NANCY 1945-07-05 18:00:00 TS 17.8962 115.413 main 500 475 O________OPO__ jtwc_wp WP051945 17.9000 115.400 30 -1 17.9000 115.400 TC 30 17.8849 115.453 1 32 17.9000 115.400 30 1002 120 6 8
1945185N14113 1945 31 WP MM NANCY 1945-07-05 21:00:00 TS 18.2044 115.465 main 475 442 P________PPP__ WP051945 18.2075 115.457 32 -1 18.2075 115.457 TC 32 18.1950 115.488 1 33 18.2075 115.457 32 1002 120 6 8
1945185N14113 1945 31 WP MM NANCY 1945-07-06 00:00:00 TS 18.5000 115.500 main 442 421 O________OOO__ jtwc_wp WP051945 18.5000 115.500 35 0 18.5000 115.500 TC 35 18.5000 115.500 2 35 18.5000 115.500 35 1002 120 6 6
1945185N14113 1945 31 WP MM NANCY 1945-07-06 03:00:00 TS 18.7580 115.519 main 410 389 P________PPP__ WP051945 18.7500 115.515 35 0 18.7500 115.515 TC 35 18.7820 115.533 2 35 18.7500 115.515 35 1002 120 5 1
1945185N14113 1945 31 WP MM NANCY 1945-07-06 06:00:00 TS 19.0143 115.510 main 389 357 O________OPO__ jtwc_wp WP051945 19.0000 115.500 35 0 19.0000 115.500 TC 35 19.0573 115.539 2 35 19.0000 115.500 35 1002 120 5 358
1945185N14113 1945 31 WP MM NANCY 1945-07-06 09:00:00 TS 19.3015 115.491 main 357 322 P________PPP__ WP051945 19.2924 115.487 35 0 19.2924 115.487 TC 35 19.3288 115.501 2 35 19.2924 115.487 35 1001 120 6 350
1945185N14113 1945 31 WP MM NANCY 1945-07-06 12:00:00 TS 19.6000 115.400 main 322 284 O________OOO__ jtwc_wp WP051945 19.6000 115.400 35 0 19.6000 115.400 TC 35 19.6000 115.400 2 35 19.6000 115.400 35 1001 120 7 335
1945185N14113 1945 31 WP MM NANCY 1945-07-06 15:00:00 TS 19.9025 115.189 main 284 242 P________PPP__ WP051945 19.9076 115.180 37 0 19.9076 115.180 TC 37 19.8874 115.215 2 38 19.9076 115.180 37 1000 120 8 323
1945185N14113 1945 31 WP MM NANCY 1945-07-06 18:00:00 TS 20.1932 114.917 main 242 216 O________OPO__ jtwc_wp WP051945 20.2000 114.900 40 0 20.2000 114.900 TC 40 20.1727 114.968 2 42 20.2000 114.900 40 999 120 7 318
1945185N14113 1945 31 WP MM NANCY 1945-07-06 21:00:00 TS 20.4548 114.654 main 205 179 P________PPP__ WP051945 20.4575 114.642 45 0 20.4575 114.642 TC 45 20.4467 114.687 2 46 20.4575 114.642 45 995 120 7 316
1945185N14113 1945 31 WP MM NANCY 1945-07-07 00:00:00 TS 20.7000 114.400 main 179 156 O________OOO__ jtwc_wp WP051945 20.7000 114.400 50 0 20.7000 114.400 TC 50 20.7000 114.400 2 50 20.7000 114.400 50 992 120 7 319
1945185N14113 1945 31 WP MM NANCY 1945-07-07 03:00:00 TS 20.9510 114.194 main 145 123 P________PPP__ WP051945 20.9649 114.207 47 0 20.9649 114.207 TC 47 20.9092 114.154 2 47 20.9649 114.207 47 993 120 6 320
1945185N14113 1945 31 WP MM NANCY 1945-07-07 06:00:00 TS 21.1749 113.977 main 123 98 O________OPO__ jtwc_wp WP051945 21.2000 114.000 45 0 21.2000 114.000 TC 45 21.0998 113.907 2 45 21.2000 114.000 45 994 120 6 309
1945185N14113 1945 31 WP MM NANCY 1945-07-07 09:00:00 TS 21.3295 113.700 main 98 60 P________PPP__ WP051945 21.3425 113.715 42 0 21.3425 113.715 TC 42 21.2905 113.657 2 42 21.3425 113.715 42 994 120 6 301
1945185N14113 1945 31 WP MM NANCY 1945-07-07 12:00:00 TS 21.5000 113.400 main 60 15 O________OOO__ jtwc_wp WP051945 21.5000 113.400 40 0 21.5000 113.400 TC 40 21.5000 113.400 2 40 21.5000 113.400 40 995 120 7 309
1945185N14113 1945 31 WP MM NANCY 1945-07-07 15:00:00 TS 21.7743 113.103 main 15 0 P________PPP__ WP051945 21.7850 113.093 40 0 21.7850 113.093 TC 40 21.7424 113.135 2 38 21.7850 113.093 40 996 120 8 317
1945185N14113 1945 31 WP MM NANCY 1945-07-07 18:00:00 TS 22.0826 112.812 main 0 0 O________OPO__ jtwc_wp WP051945 22.1000 112.800 40 0 22.1000 112.800 TC 40 22.0129 112.861 2 37 22.1000 112.800 40 997 120 8 319
1945185N14113 1945 31 WP MM NANCY 1945-07-07 21:00:00 TS 22.3430 112.561 main 0 0 P________PPP__ WP051945 22.3498 112.557 37 0 22.3498 112.557 TC 37 22.3020 112.582 2 36 22.3498 112.557 37 998 120 7 318
1945185N14113 1945 31 WP MM NANCY 1945-07-08 00:00:00 TS 22.6000 112.300 main 0 0 O________OOO__ jtwc_wp WP051945 22.6000 112.300 35 0 22.6000 112.300 TC 35 22.6000 112.300 2 35 22.6000 112.300 35 999 120 8 315
1945185N14113 1945 31 WP MM NANCY 1945-07-08 03:00:00 TS 22.8878 111.973 main 0 0 P________P_P__ WP051945 22.8878 111.973 35 0 22.8878 111.973 TC 35 2 22.8878 111.973 35 1000 120 9 313
1945185N14113 1945 31 WP MM NANCY 1945-07-08 06:00:00 TS 23.2000 111.600 main 0 O________O_O__ jtwc_wp WP051945 23.2000 111.600 35 0 23.2000 111.600 TC 35 2 23.2000 111.600 35 1001 120 9 312

デジタル台風データ・検索

IBTrACS Databaseについて

本データベースは、米国NOAAが公開する1842年以降の世界の熱帯低気圧のベストトラックデータアーカイブInternational Best Track Archive for Climate Stewardship (IBTrACS)を、ウェブで閲覧しやすい形式に変換したものです。

最終更新日:2021-11-26